createdAt,value
2023-05-23T00:01:03.733Z,10.94
2023-05-23T00:03:33.772Z,10.92
2023-05-23T00:06:02.596Z,10.91
2023-05-23T00:08:52.500Z,10.92
2023-05-23T00:11:29.547Z,10.91
2023-05-23T00:14:02.275Z,10.91
2023-05-23T00:16:33.136Z,10.89
2023-05-23T00:19:12.775Z,10.85
2023-05-23T00:21:42.082Z,10.77
2023-05-23T00:24:45.005Z,10.68
2023-05-23T00:27:55.837Z,10.59
2023-05-23T00:30:25.569Z,10.48
2023-05-23T00:32:56.180Z,10.46
2023-05-23T00:35:49.587Z,10.47
2023-05-23T00:38:26.521Z,10.47
2023-05-23T00:40:56.225Z,10.46
2023-05-23T00:44:07.303Z,10.45
2023-05-23T00:47:17.730Z,10.45
2023-05-23T00:50:16.300Z,10.39
2023-05-23T00:52:59.066Z,10.35
2023-05-23T00:55:52.246Z,10.34
2023-05-23T00:58:32.594Z,10.34
2023-05-23T01:01:14.736Z,10.33
2023-05-23T01:03:52.302Z,10.31
2023-05-23T01:06:28.229Z,10.30
2023-05-23T01:08:57.383Z,10.29
2023-05-23T01:11:36.445Z,10.27
2023-05-23T01:14:12.287Z,10.24
2023-05-23T01:17:26.313Z,10.21
2023-05-23T01:20:14.323Z,10.16
2023-05-23T01:23:25.107Z,10.11
2023-05-23T01:26:43.957Z,10.08
2023-05-23T01:29:22.810Z,10.03
2023-05-23T01:32:14.297Z,10.01
2023-05-23T01:34:48.692Z,9.97
2023-05-23T01:37:20.610Z,9.95
2023-05-23T01:40:19.512Z,9.93
2023-05-23T01:42:49.202Z,9.91
2023-05-23T01:45:30.376Z,9.88
2023-05-23T01:48:00.802Z,9.85
2023-05-23T01:50:30.943Z,9.83
2023-05-23T01:53:05.082Z,9.81
2023-05-23T01:55:36.291Z,9.79
2023-05-23T01:58:09.862Z,9.80
2023-05-23T02:00:39.806Z,9.79
2023-05-23T02:03:09.595Z,9.80
2023-05-23T02:05:40.042Z,9.81
2023-05-23T02:08:23.572Z,9.82
2023-05-23T02:10:52.506Z,9.82
2023-05-23T02:13:21.710Z,9.80
2023-05-23T02:15:51.433Z,9.74
2023-05-23T02:18:22.276Z,9.72
2023-05-23T02:20:55.201Z,9.70
2023-05-23T02:23:23.774Z,9.69
2023-05-23T02:25:53.889Z,9.68
2023-05-23T02:28:22.711Z,9.68
2023-05-23T02:30:53.862Z,9.67
2023-05-23T02:33:22.766Z,9.65
2023-05-23T02:35:52.689Z,9.62
2023-05-23T02:38:22.617Z,9.60
2023-05-23T02:40:54.528Z,9.57
2023-05-23T02:43:25.248Z,9.54
2023-05-23T02:46:06.383Z,9.51
2023-05-23T02:48:35.759Z,9.47
2023-05-23T02:51:15.039Z,9.44
2023-05-23T02:53:47.112Z,9.42
2023-05-23T02:56:17.833Z,9.38
2023-05-23T02:58:46.700Z,9.35
2023-05-23T03:01:16.825Z,9.31
2023-05-23T03:03:45.949Z,9.29
2023-05-23T03:06:19.405Z,9.27
2023-05-23T03:08:49.614Z,9.24
2023-05-23T03:11:18.253Z,9.20
2023-05-23T03:13:47.090Z,9.17
2023-05-23T03:16:17.796Z,9.14
2023-05-23T03:18:46.311Z,9.11
2023-05-23T03:21:18.975Z,9.06
2023-05-23T03:23:48.188Z,9.04
2023-05-23T03:26:19.029Z,9.00
2023-05-23T03:28:51.971Z,8.99
2023-05-23T03:31:21.021Z,8.97
2023-05-23T03:33:51.578Z,8.97
2023-05-23T03:36:24.027Z,8.96
2023-05-23T03:38:53.633Z,8.96
2023-05-23T03:41:23.334Z,8.97
2023-05-23T03:43:54.476Z,8.96
2023-05-23T03:46:28.293Z,8.96
2023-05-23T03:49:00.591Z,8.95
2023-05-23T03:51:31.180Z,8.94
2023-05-23T03:54:01.135Z,8.92
2023-05-23T03:56:31.119Z,8.90
2023-05-23T03:59:01.047Z,8.89
2023-05-23T04:01:29.893Z,8.87
2023-05-23T04:04:00.924Z,8.87
2023-05-23T04:06:31.721Z,8.85
2023-05-23T04:09:21.647Z,8.83
2023-05-23T04:11:50.522Z,8.82
2023-05-23T04:14:34.645Z,8.81
2023-05-23T04:17:09.629Z,8.81
2023-05-23T04:19:41.329Z,8.81
2023-05-23T04:22:14.983Z,8.82
2023-05-23T04:24:45.097Z,8.85
2023-05-23T04:27:15.060Z,8.88
2023-05-23T04:29:44.933Z,8.93
2023-05-23T04:32:15.372Z,8.99
2023-05-23T04:34:49.786Z,9.06
2023-05-23T04:37:23.492Z,9.16
2023-05-23T04:39:55.630Z,9.27
2023-05-23T04:42:26.564Z,9.38
2023-05-23T04:44:57.799Z,9.50
2023-05-23T04:47:37.184Z,9.59
2023-05-23T04:50:09.304Z,9.66
2023-05-23T04:52:37.808Z,9.71
2023-05-23T04:55:07.152Z,9.78
2023-05-23T04:57:36.377Z,9.83
2023-05-23T05:00:35.955Z,9.86
2023-05-23T05:03:05.438Z,9.90
2023-05-23T05:05:38.418Z,9.95
2023-05-23T05:08:14.718Z,10.03
2023-05-23T05:10:55.442Z,10.18
2023-05-23T05:13:25.548Z,10.35
2023-05-23T05:15:59.416Z,10.53
2023-05-23T05:18:28.123Z,10.72
2023-05-23T05:21:09.504Z,10.88
2023-05-23T05:23:37.651Z,10.99
2023-05-23T05:26:08.888Z,11.06
2023-05-23T05:28:39.156Z,11.16
2023-05-23T05:31:10.489Z,11.23
2023-05-23T05:33:39.619Z,11.29
2023-05-23T05:36:08.424Z,11.35
2023-05-23T05:38:40.513Z,11.43
2023-05-23T05:41:09.656Z,11.68
2023-05-23T05:43:38.853Z,12.30
2023-05-23T05:46:06.939Z,12.73
2023-05-23T05:48:36.891Z,13.13
2023-05-23T05:51:05.495Z,13.56
2023-05-23T05:53:34.254Z,14.16
2023-05-23T05:56:03.673Z,14.58
2023-05-23T05:58:35.028Z,14.89
2023-05-23T06:01:03.959Z,15.09
2023-05-23T06:03:32.928Z,15.14
2023-05-23T06:06:05.556Z,14.87
2023-05-23T06:08:34.635Z,14.64
2023-05-23T06:11:05.617Z,14.28
2023-05-23T06:13:34.802Z,13.97
2023-05-23T06:16:07.691Z,13.71
2023-05-23T06:18:36.328Z,13.48
2023-05-23T06:21:06.379Z,13.33
2023-05-23T06:23:35.578Z,13.22
2023-05-23T06:26:08.671Z,13.17
2023-05-23T06:28:41.053Z,13.14
2023-05-23T06:31:10.659Z,13.13
2023-05-23T06:33:40.885Z,13.19
2023-05-23T06:36:29.622Z,13.32
2023-05-23T06:38:59.431Z,13.33
2023-05-23T06:41:29.616Z,13.32
2023-05-23T06:43:59.546Z,13.25
2023-05-23T06:46:30.490Z,13.20
2023-05-23T06:49:13.257Z,13.20
2023-05-23T06:51:43.332Z,13.12
2023-05-23T06:54:12.274Z,13.11
2023-05-23T06:56:51.522Z,13.11
2023-05-23T06:59:20.084Z,13.07
2023-05-23T07:01:56.284Z,13.02
2023-05-23T07:04:25.703Z,12.98
2023-05-23T07:06:55.798Z,12.97
2023-05-23T07:09:28.306Z,12.98
2023-05-23T07:11:58.058Z,13.01
2023-05-23T07:14:29.205Z,13.02
2023-05-23T07:16:57.914Z,12.94
2023-05-23T07:19:26.348Z,12.91
2023-05-23T07:21:55.319Z,12.98
2023-05-23T07:24:25.381Z,13.03
2023-05-23T07:26:55.722Z,13.03
2023-05-23T07:29:24.874Z,12.96
2023-05-23T07:31:54.369Z,13.00
2023-05-23T07:34:24.032Z,13.08
2023-05-23T07:36:52.811Z,13.15
2023-05-23T07:39:24.762Z,13.15
2023-05-23T07:41:55.451Z,13.21
2023-05-23T07:44:25.304Z,13.40
2023-05-23T07:46:54.785Z,13.58
2023-05-23T07:49:25.408Z,13.73
2023-05-23T07:52:15.449Z,13.96
2023-05-23T07:54:54.284Z,14.12
2023-05-23T07:57:26.428Z,14.20
2023-05-23T07:59:54.666Z,14.24
2023-05-23T08:02:26.464Z,14.21
2023-05-23T08:05:07.788Z,14.15
2023-05-23T08:07:38.810Z,14.20
2023-05-23T08:10:21.774Z,14.42
2023-05-23T08:12:50.526Z,14.57
2023-05-23T08:15:24.576Z,14.60
2023-05-23T08:18:09.215Z,14.64
2023-05-23T08:21:08.800Z,14.78
2023-05-23T08:23:37.868Z,14.89
2023-05-23T08:26:38.133Z,15.01
2023-05-23T08:29:38.101Z,15.28
2023-05-23T08:32:16.526Z,15.64
2023-05-23T08:34:55.298Z,15.84
2023-05-23T08:38:04.370Z,16.07
2023-05-23T08:40:43.533Z,16.47
2023-05-23T08:43:15.433Z,16.67
2023-05-23T08:46:04.525Z,16.84
2023-05-23T08:48:56.945Z,16.89
2023-05-23T08:51:30.230Z,16.96
2023-05-23T08:54:13.754Z,17.06
2023-05-23T08:57:11.748Z,17.12
2023-05-23T08:59:50.156Z,17.10
2023-05-23T09:02:21.423Z,17.00
2023-05-23T09:05:03.521Z,17.05
2023-05-23T09:07:38.902Z,17.22
2023-05-23T09:10:50.463Z,17.38
2023-05-23T09:13:31.498Z,17.54
2023-05-23T09:16:10.789Z,17.70
2023-05-23T09:19:06.769Z,17.83
2023-05-23T09:21:50.385Z,17.96
2023-05-23T09:24:47.345Z,18.14
2023-05-23T09:27:56.877Z,18.23
2023-05-23T09:30:42.145Z,18.11
2023-05-23T09:33:53.044Z,18.22
2023-05-23T09:36:33.168Z,18.27
2023-05-23T09:39:06.304Z,18.18
2023-05-23T09:41:37.792Z,18.12
2023-05-23T09:44:37.458Z,18.08
2023-05-23T09:47:29.742Z,18.03
2023-05-23T09:50:18.725Z,17.98
2023-05-23T09:53:00.411Z,18.07
2023-05-23T09:55:32.001Z,18.16
2023-05-23T09:58:01.809Z,18.19
2023-05-23T10:01:04.201Z,18.07
2023-05-23T10:03:47.050Z,17.97
2023-05-23T10:06:30.763Z,17.93
2023-05-23T10:09:05.677Z,17.91
2023-05-23T10:11:46.735Z,17.76
2023-05-23T10:14:26.585Z,17.57
2023-05-23T10:17:12.467Z,17.50
2023-05-23T10:19:55.517Z,17.52
2023-05-23T10:22:33.350Z,17.63
2023-05-23T10:25:06.377Z,17.80
2023-05-23T10:27:44.152Z,17.90
2023-05-23T10:30:45.241Z,18.02
2023-05-23T10:33:43.195Z,18.28
2023-05-23T10:37:02.746Z,18.51
2023-05-23T10:40:11.945Z,18.80
2023-05-23T10:43:23.635Z,18.99
2023-05-23T10:46:14.712Z,19.00
2023-05-23T10:49:15.540Z,19.00
2023-05-23T10:52:07.481Z,18.95
2023-05-23T10:55:17.344Z,18.89
2023-05-23T10:58:27.019Z,18.86
2023-05-23T11:01:36.774Z,19.02
2023-05-23T11:04:31.991Z,19.12
2023-05-23T11:07:24.490Z,19.42
2023-05-23T11:10:35.890Z,19.64
2023-05-23T11:13:11.247Z,19.65
2023-05-23T11:15:45.973Z,19.67
2023-05-23T11:18:48.731Z,19.89
2023-05-23T11:21:30.484Z,20.15
2023-05-23T11:24:39.653Z,20.21
2023-05-23T11:27:13.429Z,20.33
2023-05-23T11:29:45.126Z,20.21
2023-05-23T11:32:36.581Z,19.95
2023-05-23T11:35:10.922Z,19.93
2023-05-23T11:37:48.153Z,20.02
2023-05-23T11:40:30.738Z,20.09
2023-05-23T11:43:11.408Z,20.07
2023-05-23T11:45:44.268Z,20.04
2023-05-23T11:48:16.918Z,20.04
2023-05-23T11:51:07.156Z,20.07
2023-05-23T11:53:45.421Z,20.12
2023-05-23T11:56:18.891Z,20.12
2023-05-23T11:58:49.101Z,20.13
2023-05-23T12:01:31.829Z,20.24
2023-05-23T12:04:04.362Z,20.41
2023-05-23T12:07:04.207Z,20.50
2023-05-23T12:10:07.895Z,20.51
2023-05-23T12:12:57.030Z,20.51
2023-05-23T12:15:53.249Z,20.53
2023-05-23T12:18:42.169Z,20.39
2023-05-23T12:21:13.787Z,20.35
2023-05-23T12:24:05.408Z,20.44
2023-05-23T12:26:57.020Z,20.48
2023-05-23T12:30:15.337Z,20.56
2023-05-23T12:33:06.483Z,20.70
2023-05-23T12:35:38.425Z,20.86
2023-05-23T12:38:20.223Z,20.94
2023-05-23T12:41:20.434Z,21.07
2023-05-23T12:44:05.697Z,21.14
2023-05-23T12:46:37.006Z,21.16
2023-05-23T12:49:12.578Z,21.34
2023-05-23T12:51:41.981Z,21.49
2023-05-23T12:54:11.188Z,21.55
2023-05-23T12:56:43.750Z,21.42
2023-05-23T12:59:13.156Z,21.43
2023-05-23T13:01:53.321Z,21.54
2023-05-23T13:04:25.010Z,21.52
2023-05-23T13:06:55.812Z,21.49
2023-05-23T13:09:47.726Z,21.40
2023-05-23T13:12:19.098Z,21.15
2023-05-23T13:14:48.914Z,21.09
2023-05-23T13:17:18.093Z,21.04
2023-05-23T13:19:47.430Z,20.95
2023-05-23T13:22:21.915Z,20.87
2023-05-23T13:24:54.509Z,20.88
2023-05-23T13:27:37.114Z,20.67
2023-05-23T13:30:08.300Z,20.63
2023-05-23T13:32:57.853Z,20.61
2023-05-23T13:35:26.652Z,20.42
2023-05-23T13:37:57.995Z,20.37
2023-05-23T13:40:26.778Z,20.50
2023-05-23T13:43:05.113Z,20.54
2023-05-23T13:45:35.410Z,20.57
2023-05-23T13:48:25.931Z,20.68
2023-05-23T13:51:00.497Z,20.65
2023-05-23T13:53:32.289Z,20.67
2023-05-23T13:56:02.453Z,20.56
2023-05-23T13:58:32.818Z,20.51
2023-05-23T14:01:03.565Z,20.64
2023-05-23T14:03:33.202Z,20.84
2023-05-23T14:06:01.739Z,21.08
2023-05-23T14:08:33.082Z,21.23
2023-05-23T14:11:06.841Z,21.23
2023-05-23T14:13:35.963Z,21.18
2023-05-23T14:16:04.614Z,21.08
2023-05-23T14:18:34.536Z,20.84
2023-05-23T14:21:04.646Z,20.56
2023-05-23T14:23:33.331Z,20.29
2023-05-23T14:26:02.509Z,20.10
2023-05-23T14:28:44.415Z,19.93
2023-05-23T14:31:17.912Z,20.13
2023-05-23T14:33:47.258Z,20.48
2023-05-23T14:36:19.139Z,20.85
2023-05-23T14:38:48.089Z,21.21
2023-05-23T14:41:16.630Z,21.26
2023-05-23T14:43:47.859Z,20.94
2023-05-23T14:46:18.900Z,20.67
2023-05-23T14:48:48.550Z,20.58
2023-05-23T14:51:31.099Z,20.73
2023-05-23T14:54:17.569Z,20.87
2023-05-23T14:56:51.288Z,20.86
2023-05-23T14:59:22.426Z,21.08
2023-05-23T15:01:51.191Z,21.39
2023-05-23T15:04:24.397Z,21.58
2023-05-23T15:07:00.166Z,21.76
2023-05-23T15:09:30.118Z,21.85
2023-05-23T15:12:00.972Z,21.83
2023-05-23T15:14:33.887Z,21.94
2023-05-23T15:17:08.981Z,22.00
2023-05-23T15:19:45.795Z,21.96
2023-05-23T15:22:31.174Z,21.82
2023-05-23T15:25:04.676Z,21.95
2023-05-23T15:27:45.493Z,22.03
2023-05-23T15:30:19.289Z,21.88
2023-05-23T15:33:13.343Z,21.69
2023-05-23T15:35:42.989Z,21.57
2023-05-23T15:38:20.696Z,21.44
2023-05-23T15:41:23.233Z,21.37
2023-05-23T15:44:07.012Z,21.26
2023-05-23T15:46:59.072Z,21.06
2023-05-23T15:50:02.769Z,20.86
2023-05-23T15:53:15.726Z,20.68
2023-05-23T15:56:19.518Z,20.53
2023-05-23T15:58:58.485Z,20.73
2023-05-23T16:01:27.109Z,20.86
2023-05-23T16:03:58.157Z,20.77
2023-05-23T16:06:29.223Z,20.81
2023-05-23T16:09:19.100Z,21.07
2023-05-23T16:12:09.016Z,21.41
2023-05-23T16:14:58.743Z,21.59
2023-05-23T16:17:30.829Z,21.76
2023-05-23T16:20:31.735Z,22.00
2023-05-23T16:23:10.939Z,22.30
2023-05-23T16:25:49.564Z,22.48
2023-05-23T16:28:19.003Z,22.59
2023-05-23T16:31:26.427Z,22.62
2023-05-23T16:34:24.324Z,22.73
2023-05-23T16:37:16.106Z,22.68
2023-05-23T16:39:45.168Z,22.71
2023-05-23T16:42:22.917Z,22.84
2023-05-23T16:44:54.875Z,23.04
2023-05-23T16:47:24.940Z,23.21
2023-05-23T16:49:54.826Z,23.41
2023-05-23T16:52:24.303Z,23.44
2023-05-23T16:54:56.627Z,23.24
2023-05-23T16:57:43.521Z,23.10
2023-05-23T17:00:23.458Z,23.14
2023-05-23T17:03:14.434Z,23.18
2023-05-23T17:05:49.328Z,23.32
2023-05-23T17:08:20.019Z,23.47
2023-05-23T17:10:59.123Z,23.55
2023-05-23T17:13:37.920Z,23.68
2023-05-23T17:16:20.246Z,23.85
2023-05-23T17:19:00.862Z,23.99
2023-05-23T17:21:48.550Z,24.04
2023-05-23T17:24:39.712Z,23.95
2023-05-23T17:27:11.310Z,23.79
2023-05-23T17:29:53.522Z,23.58
2023-05-23T17:32:35.449Z,23.38
2023-05-23T17:35:26.342Z,23.17
2023-05-23T17:37:59.116Z,23.05
2023-05-23T17:40:35.220Z,22.96
2023-05-23T17:43:09.098Z,22.97
2023-05-23T17:46:00.106Z,22.84
2023-05-23T17:49:02.986Z,22.74
2023-05-23T17:51:36.821Z,22.71
2023-05-23T17:54:06.563Z,22.61
2023-05-23T17:57:08.596Z,22.52
2023-05-23T17:59:58.901Z,22.35
2023-05-23T18:02:35.085Z,22.17
2023-05-23T18:05:26.388Z,22.03
2023-05-23T18:08:05.250Z,21.79
2023-05-23T18:10:48.220Z,21.58
2023-05-23T18:13:32.053Z,21.39
2023-05-23T18:16:26.009Z,21.19
2023-05-23T18:18:57.936Z,20.95
2023-05-23T18:21:36.252Z,20.80
2023-05-23T18:24:27.440Z,20.67
2023-05-23T18:27:17.750Z,20.52
2023-05-23T18:29:52.335Z,20.35
2023-05-23T18:32:25.504Z,20.24
2023-05-23T18:35:29.709Z,20.12
2023-05-23T18:38:08.870Z,19.92
2023-05-23T18:41:14.776Z,19.82
2023-05-23T18:44:05.846Z,19.77
2023-05-23T18:46:57.334Z,19.74
2023-05-23T18:49:59.861Z,19.77
2023-05-23T18:52:44.803Z,19.76
2023-05-23T18:55:13.498Z,19.72
2023-05-23T18:58:01.639Z,19.68
2023-05-23T19:01:11.014Z,19.59
2023-05-23T19:03:46.545Z,19.48
2023-05-23T19:06:28.321Z,19.38
2023-05-23T19:09:12.148Z,19.26
2023-05-23T19:12:03.965Z,19.15
2023-05-23T19:14:53.080Z,19.04
2023-05-23T19:17:34.176Z,18.90
2023-05-23T19:20:26.092Z,18.79
2023-05-23T19:23:30.822Z,18.66
2023-05-23T19:26:41.667Z,18.52
2023-05-23T19:29:47.604Z,18.40
2023-05-23T19:32:30.654Z,18.27
2023-05-23T19:35:14.753Z,18.18
2023-05-23T19:38:05.359Z,18.09
2023-05-23T19:40:43.455Z,17.97
2023-05-23T19:43:45.151Z,17.86
2023-05-23T19:46:15.863Z,17.71
2023-05-23T19:49:21.970Z,17.58
2023-05-23T19:52:07.906Z,17.42
2023-05-23T19:55:03.659Z,17.28
2023-05-23T19:57:55.714Z,17.15
2023-05-23T20:00:50.706Z,17.04
2023-05-23T20:03:44.567Z,16.93
2023-05-23T20:06:14.437Z,16.79
2023-05-23T20:09:17.313Z,16.70
2023-05-23T20:12:08.241Z,16.59
2023-05-23T20:14:58.137Z,16.54
2023-05-23T20:17:40.084Z,16.47
2023-05-23T20:20:31.911Z,16.41
2023-05-23T20:23:40.852Z,16.33
2023-05-23T20:26:33.762Z,16.21
2023-05-23T20:29:23.673Z,16.16
2023-05-23T20:32:23.561Z,16.11
2023-05-23T20:35:34.433Z,16.08
2023-05-23T20:38:26.382Z,16.03
2023-05-23T20:41:37.039Z,15.98
2023-05-23T20:44:26.160Z,15.93
2023-05-23T20:47:36.072Z,15.86
2023-05-23T20:50:26.460Z,15.78
2023-05-23T20:53:08.880Z,15.71
2023-05-23T20:56:19.788Z,15.65
2023-05-23T20:59:29.120Z,15.56
2023-05-23T21:02:18.631Z,15.46
2023-05-23T21:05:29.602Z,15.36
2023-05-23T21:08:28.344Z,15.29
2023-05-23T21:11:08.293Z,15.18
2023-05-23T21:14:18.278Z,15.10
2023-05-23T21:17:19.010Z,15.01
2023-05-23T21:20:30.051Z,14.96
2023-05-23T21:23:19.914Z,14.94
2023-05-23T21:26:24.688Z,14.91
2023-05-23T21:29:36.927Z,14.87
2023-05-23T21:32:49.787Z,14.81
2023-05-23T21:35:54.623Z,14.73
2023-05-23T21:38:48.410Z,14.65
2023-05-23T21:41:59.259Z,14.58
2023-05-23T21:44:28.380Z,14.52
2023-05-23T21:47:31.162Z,14.48
2023-05-23T21:50:25.969Z,14.45
2023-05-23T21:52:58.899Z,14.39
2023-05-23T21:55:49.721Z,14.34
2023-05-23T21:58:34.550Z,14.28
2023-05-23T22:01:36.590Z,14.15
2023-05-23T22:04:14.958Z,14.09
2023-05-23T22:06:48.014Z,14.08
2023-05-23T22:09:52.349Z,14.08
2023-05-23T22:12:42.316Z,14.07
2023-05-23T22:15:20.404Z,14.06
2023-05-23T22:18:19.252Z,14.05
2023-05-23T22:21:16.014Z,14.02
2023-05-23T22:24:08.427Z,13.98
2023-05-23T22:27:00.842Z,13.93
2023-05-23T22:30:10.737Z,13.83
2023-05-23T22:32:53.711Z,13.75
2023-05-23T22:36:03.540Z,13.71
2023-05-23T22:38:55.448Z,13.67
2023-05-23T22:42:06.423Z,13.65
2023-05-23T22:45:15.621Z,13.54
2023-05-23T22:48:17.935Z,13.48
2023-05-23T22:51:22.051Z,13.39
2023-05-23T22:54:02.950Z,13.32
2023-05-23T22:56:37.102Z,13.31
2023-05-23T22:59:47.942Z,13.31
2023-05-23T23:02:45.103Z,13.30
2023-05-23T23:05:57.561Z,13.30
2023-05-23T23:08:51.759Z,13.29
2023-05-23T23:11:43.304Z,13.29
2023-05-23T23:14:44.066Z,13.25
2023-05-23T23:17:53.272Z,13.23
2023-05-23T23:20:34.188Z,13.20
2023-05-23T23:23:43.982Z,13.16
2023-05-23T23:26:24.069Z,13.10
2023-05-23T23:29:20.924Z,13.05
2023-05-23T23:32:25.695Z,13.01
2023-05-23T23:35:07.576Z,12.97
2023-05-23T23:38:10.728Z,12.94
2023-05-23T23:40:59.505Z,12.89
2023-05-23T23:43:33.201Z,12.85
2023-05-23T23:46:44.287Z,12.80
2023-05-23T23:49:45.091Z,12.76
2023-05-23T23:52:48.038Z,12.72
2023-05-23T23:55:37.919Z,12.69
2023-05-23T23:58:27.813Z,12.66
